createdAt,value
2023-04-05T00:01:33.772Z,12.02
2023-04-05T00:04:00.876Z,8.32
2023-04-05T00:06:29.093Z,12.05
2023-04-05T00:09:05.100Z,11.20
2023-04-05T00:11:33.383Z,12.60
2023-04-05T00:14:01.062Z,12.57
2023-04-05T00:16:29.010Z,11.55
2023-04-05T00:18:57.302Z,10.82
2023-04-05T00:21:24.654Z,9.07
2023-04-05T00:23:53.600Z,9.80
2023-04-05T00:26:21.309Z,11.18
2023-04-05T00:28:52.705Z,10.23
2023-04-05T00:31:19.182Z,10.65
2023-04-05T00:33:46.188Z,13.60
2023-04-05T00:36:14.859Z,12.73
2023-04-05T00:38:42.126Z,9.07
2023-04-05T00:41:09.096Z,14.27
2023-04-05T00:43:35.591Z,11.10
2023-04-05T00:46:02.518Z,11.25
2023-04-05T00:48:29.569Z,12.02
2023-04-05T00:50:57.507Z,12.02
2023-04-05T00:53:24.284Z,13.88
2023-04-05T00:55:54.326Z,9.43
2023-04-05T00:58:24.743Z,11.43
2023-04-05T01:00:51.370Z,11.02
2023-04-05T01:03:20.182Z,15.13
2023-04-05T01:06:00.676Z,10.38
2023-04-05T01:08:43.737Z,14.40
2023-04-05T01:11:12.048Z,14.65
2023-04-05T01:13:39.408Z,11.55
2023-04-05T01:16:06.272Z,13.80
2023-04-05T01:18:36.376Z,13.65
2023-04-05T01:21:23.061Z,19.17
2023-04-05T01:24:09.859Z,19.48
2023-04-05T01:27:01.454Z,14.85
2023-04-05T01:32:10.822Z,18.67
2023-04-05T01:34:44.950Z,22.63
2023-04-05T01:37:18.086Z,24.88
2023-04-05T01:39:47.427Z,18.77
2023-04-05T01:42:13.976Z,18.63
2023-04-05T01:44:40.516Z,20.48
2023-04-05T01:47:06.932Z,18.85
2023-04-05T01:49:33.335Z,18.92
2023-04-05T01:51:59.743Z,15.55
2023-04-05T01:54:27.022Z,15.13
2023-04-05T01:56:53.513Z,11.80
2023-04-05T01:59:19.953Z,16.48
2023-04-05T02:01:46.393Z,13.07
2023-04-05T02:04:12.847Z,13.73
2023-04-05T02:06:41.065Z,11.02
2023-04-05T02:09:07.601Z,10.95
2023-04-05T02:11:34.051Z,13.23
2023-04-05T02:14:00.960Z,12.43
2023-04-05T02:16:27.659Z,13.07
2023-04-05T02:18:57.836Z,19.20
2023-04-05T02:21:26.014Z,13.80
2023-04-05T02:23:53.319Z,18.08
2023-04-05T02:26:19.780Z,16.73
2023-04-05T02:28:47.144Z,21.27
2023-04-05T02:31:14.500Z,21.13
2023-04-05T02:33:42.014Z,14.73
2023-04-05T02:36:10.792Z,26.00
2023-04-05T02:38:37.980Z,23.90
2023-04-05T02:41:07.794Z,19.33
2023-04-05T02:43:35.253Z,18.63
2023-04-05T02:46:01.830Z,19.90
2023-04-05T02:48:28.425Z,26.05
2023-04-05T02:50:55.968Z,26.73
2023-04-05T02:53:22.427Z,26.83
2023-04-05T02:55:56.880Z,17.88
2023-04-05T02:58:24.324Z,14.95
2023-04-05T03:00:51.928Z,15.38
2023-04-05T03:03:24.552Z,14.57
2023-04-05T03:06:00.332Z,13.30
2023-04-05T03:08:29.310Z,17.30
2023-04-05T03:11:01.644Z,15.60
2023-04-05T03:13:28.210Z,12.50
2023-04-05T03:15:55.825Z,15.95
2023-04-05T03:18:26.624Z,11.32
2023-04-05T03:20:59.214Z,10.15
2023-04-05T03:23:28.550Z,12.10
2023-04-05T03:26:00.468Z,15.13
2023-04-05T03:28:32.331Z,15.15
2023-04-05T03:31:02.703Z,14.07
2023-04-05T03:33:29.528Z,12.32
2023-04-05T03:35:56.174Z,13.68
2023-04-05T03:38:22.736Z,16.75
2023-04-05T03:41:09.455Z,15.65
2023-04-05T03:43:36.624Z,15.85
2023-04-05T03:46:03.170Z,11.25
2023-04-05T03:48:30.109Z,14.35
2023-04-05T03:50:56.667Z,9.88
2023-04-05T03:53:23.413Z,12.55
2023-04-05T03:55:54.177Z,11.43
2023-04-05T03:58:27.654Z,12.55
2023-04-05T04:00:56.724Z,18.73
2023-04-05T04:03:25.986Z,14.50
2023-04-05T04:05:52.708Z,20.13
2023-04-05T04:08:20.196Z,15.20
2023-04-05T04:10:46.892Z,12.38
2023-04-05T04:13:23.228Z,14.75
2023-04-05T04:16:03.921Z,15.52
2023-04-05T04:18:49.376Z,20.10
2023-04-05T04:21:39.433Z,17.55
2023-04-05T04:24:20.540Z,23.88
2023-04-05T04:27:06.798Z,18.92
2023-04-05T04:30:04.982Z,23.05
2023-04-05T04:35:38.957Z,17.77
2023-04-05T04:38:20.581Z,15.38
2023-04-05T04:41:11.368Z,19.55
2023-04-05T04:43:43.812Z,21.75
2023-04-05T04:46:34.595Z,17.77
2023-04-05T04:49:07.049Z,16.23
2023-04-05T04:51:33.919Z,15.75
2023-04-05T04:54:00.703Z,17.92
2023-04-05T04:56:27.414Z,20.35
2023-04-05T04:58:56.603Z,15.35
2023-04-05T05:01:25.123Z,19.05
2023-04-05T05:03:52.403Z,15.95
2023-04-05T05:06:27.185Z,17.15
2023-04-05T05:08:54.012Z,21.60
2023-04-05T05:11:20.814Z,20.00
2023-04-05T05:13:50.522Z,14.45
2023-04-05T05:16:23.437Z,16.77
2023-04-05T05:18:52.963Z,19.17
2023-04-05T05:21:20.927Z,19.52
2023-04-05T05:23:53.437Z,21.55
2023-04-05T05:26:19.869Z,24.70
2023-04-05T05:28:48.663Z,21.42
2023-04-05T05:31:17.557Z,17.77
2023-04-05T05:33:47.760Z,17.48
2023-04-05T05:36:14.142Z,16.35
2023-04-05T05:38:42.988Z,16.27
2023-04-05T05:41:09.403Z,14.82
2023-04-05T05:43:35.886Z,14.85
2023-04-05T05:46:02.484Z,12.88
2023-04-05T05:48:28.972Z,12.70
2023-04-05T05:50:56.314Z,16.85
2023-04-05T05:53:22.954Z,16.30
2023-04-05T05:55:49.328Z,17.00
2023-04-05T05:58:15.912Z,11.73
2023-04-05T06:00:42.703Z,12.82
2023-04-05T06:03:09.920Z,13.07
2023-04-05T06:05:36.581Z,14.55
2023-04-05T06:08:03.913Z,16.70
2023-04-05T06:10:31.101Z,11.50
2023-04-05T06:12:57.513Z,14.20
2023-04-05T06:15:23.954Z,16.17
2023-04-05T06:17:50.401Z,12.45
2023-04-05T06:20:16.910Z,14.10
2023-04-05T06:22:44.427Z,10.85
2023-04-05T06:25:12.877Z,11.85
2023-04-05T06:27:39.494Z,14.20
2023-04-05T06:30:06.780Z,11.32
2023-04-05T06:32:33.242Z,13.45
2023-04-05T06:35:00.853Z,12.05
2023-04-05T06:37:27.247Z,14.27
2023-04-05T06:39:53.789Z,14.15
2023-04-05T06:42:20.302Z,10.40
2023-04-05T06:44:53.288Z,15.32
2023-04-05T06:47:19.689Z,12.30
2023-04-05T06:49:46.085Z,9.25
2023-04-05T06:52:12.480Z,13.70
2023-04-05T06:54:39.526Z,13.80
2023-04-05T06:57:06.049Z,10.93
2023-04-05T06:59:32.626Z,11.80
2023-04-05T07:01:59.107Z,9.48
2023-04-05T07:04:26.645Z,11.50
2023-04-05T07:06:53.852Z,12.45
2023-04-05T07:09:21.259Z,12.95
2023-04-05T07:11:47.659Z,13.32
2023-04-05T07:14:14.039Z,11.43
2023-04-05T07:16:40.466Z,11.45
2023-04-05T07:19:07.250Z,12.13
2023-04-05T07:21:33.703Z,9.77
2023-04-05T07:24:01.889Z,10.25
2023-04-05T07:26:28.955Z,17.67
2023-04-05T07:28:55.427Z,12.98
2023-04-05T07:31:21.829Z,12.00
2023-04-05T07:33:48.712Z,9.25
2023-04-05T07:36:15.249Z,7.88
2023-04-05T07:38:41.822Z,10.77
2023-04-05T07:41:08.221Z,10.68
2023-04-05T07:43:34.620Z,12.82
2023-04-05T07:46:03.083Z,10.85
2023-04-05T07:48:30.544Z,11.38
2023-04-05T07:50:57.581Z,12.65
2023-04-05T07:53:24.051Z,12.27
2023-04-05T07:55:50.431Z,13.63
2023-04-05T07:58:16.829Z,8.70
2023-04-05T08:00:43.473Z,13.00
2023-04-05T08:03:10.135Z,13.25
2023-04-05T08:05:36.589Z,9.15
2023-04-05T08:08:03.183Z,9.32
2023-04-05T08:10:29.553Z,11.38
2023-04-05T08:12:56.028Z,13.43
2023-04-05T08:15:22.533Z,10.05
2023-04-05T08:17:49.040Z,13.07
2023-04-05T08:20:15.741Z,14.10
2023-04-05T08:22:42.202Z,11.80
2023-04-05T08:25:09.190Z,10.82
2023-04-05T08:27:35.653Z,11.90
2023-04-05T08:30:02.070Z,8.77
2023-04-05T08:32:28.487Z,10.90
2023-04-05T08:34:54.931Z,9.63
2023-04-05T08:37:21.336Z,12.48
2023-04-05T08:39:47.825Z,11.13
2023-04-05T08:42:23.483Z,11.45
2023-04-05T08:44:52.467Z,9.80
2023-04-05T08:47:19.592Z,9.10
2023-04-05T08:49:47.347Z,11.68
2023-04-05T08:52:13.870Z,14.10
2023-04-05T08:54:40.396Z,9.85
2023-04-05T08:57:10.367Z,10.75
2023-04-05T08:59:40.969Z,9.55
2023-04-05T09:02:16.211Z,12.27
2023-04-05T09:04:45.055Z,12.30
2023-04-05T09:07:13.657Z,8.68
2023-04-05T09:09:44.156Z,14.27
2023-04-05T09:12:11.220Z,7.65
2023-04-05T09:14:38.517Z,11.35
2023-04-05T09:17:06.420Z,12.57
2023-04-05T09:19:32.985Z,12.70
2023-04-05T09:22:06.985Z,10.25
2023-04-05T09:24:43.875Z,10.57
2023-04-05T09:29:40.463Z,9.25
2023-04-05T09:32:10.599Z,9.27
2023-04-05T09:34:38.153Z,13.63
2023-04-05T09:37:20.521Z,8.77
2023-04-05T09:39:49.703Z,9.90
2023-04-05T09:42:19.289Z,12.32
2023-04-05T09:45:02.527Z,11.48
2023-04-05T09:47:36.524Z,11.38
2023-04-05T09:50:15.570Z,9.73
2023-04-05T09:52:43.408Z,11.10
2023-04-05T09:55:10.872Z,11.43
2023-04-05T09:57:39.566Z,9.18
2023-04-05T10:00:17.041Z,7.50
2023-04-05T10:02:43.668Z,16.10
2023-04-05T10:05:13.597Z,9.90
2023-04-05T10:07:43.160Z,11.70
2023-04-05T10:10:12.292Z,8.07
2023-04-05T10:12:41.399Z,7.78
2023-04-05T10:15:11.295Z,7.95
2023-04-05T10:18:03.500Z,9.00
2023-04-05T10:20:32.991Z,11.27
2023-04-05T10:23:10.437Z,12.57
2023-04-05T10:25:53.240Z,9.20
2023-04-05T10:28:34.530Z,7.03
2023-04-05T10:31:37.193Z,9.90
2023-04-05T10:34:06.721Z,12.80
2023-04-05T10:36:46.677Z,8.52
2023-04-05T10:39:25.492Z,10.13
2023-04-05T10:42:27.554Z,10.57
2023-04-05T10:45:02.415Z,9.82
2023-04-05T10:47:31.956Z,7.63
2023-04-05T10:50:03.592Z,8.48
2023-04-05T10:52:30.656Z,8.45
2023-04-05T10:54:59.865Z,8.30
2023-04-05T10:57:27.235Z,8.45
2023-04-05T10:59:54.771Z,7.80
2023-04-05T11:02:22.008Z,8.68
2023-04-05T11:04:56.881Z,8.45
2023-04-05T11:07:23.857Z,8.07
2023-04-05T11:10:02.316Z,7.63
2023-04-05T11:12:47.004Z,8.77
2023-04-05T11:15:25.429Z,9.90
2023-04-05T11:18:17.022Z,7.75
2023-04-05T11:23:13.448Z,7.85
2023-04-05T11:25:41.339Z,10.43
2023-04-05T11:28:11.842Z,8.32
2023-04-05T11:30:48.976Z,9.88
2023-04-05T11:33:37.954Z,7.55
2023-04-05T11:36:04.883Z,7.30
2023-04-05T11:38:31.446Z,8.93
2023-04-05T11:41:25.688Z,7.20
2023-04-05T11:43:53.645Z,9.07
2023-04-05T11:46:21.286Z,10.55
2023-04-05T11:48:51.059Z,9.68
2023-04-05T11:51:20.833Z,6.88
2023-04-05T11:53:47.424Z,12.48
2023-04-05T11:56:15.968Z,7.70
2023-04-05T11:58:42.742Z,11.55
2023-04-05T12:01:09.635Z,9.32
2023-04-05T12:03:37.471Z,7.30
2023-04-05T12:06:06.211Z,7.47
2023-04-05T12:08:49.968Z,8.88
2023-04-05T12:11:23.658Z,7.90
2023-04-05T12:13:54.222Z,8.90
2023-04-05T12:16:20.924Z,9.63
2023-04-05T12:18:57.640Z,6.18
2023-04-05T12:21:26.198Z,8.27
2023-04-05T12:23:53.778Z,8.82
2023-04-05T12:26:21.215Z,6.80
2023-04-05T12:28:58.640Z,8.75
2023-04-05T12:31:44.560Z,8.48
2023-04-05T12:34:12.871Z,26.02
2023-04-05T12:36:43.751Z,12.43
2023-04-05T12:39:10.493Z,7.55
2023-04-05T12:41:37.430Z,7.60
2023-04-05T12:44:15.664Z,8.75
2023-04-05T12:46:45.910Z,6.75
2023-04-05T12:49:16.694Z,7.32
2023-04-05T12:51:47.461Z,8.52
2023-04-05T12:54:15.183Z,8.98
2023-04-05T12:56:42.310Z,7.00
2023-04-05T12:59:08.811Z,9.52
2023-04-05T13:01:35.558Z,6.13
2023-04-05T13:04:14.694Z,9.52
2023-04-05T13:06:42.253Z,7.20
2023-04-05T13:09:08.791Z,9.00
2023-04-05T13:11:35.199Z,8.38
2023-04-05T13:14:01.630Z,6.93
2023-04-05T13:16:28.091Z,8.63
2023-04-05T13:18:54.560Z,9.35
2023-04-05T13:21:21.123Z,7.10
2023-04-05T13:23:47.515Z,9.15
2023-04-05T13:26:13.930Z,9.38
2023-04-05T13:28:40.459Z,8.90
2023-04-05T13:31:08.275Z,8.10
2023-04-05T13:33:34.915Z,7.57
2023-04-05T13:36:01.410Z,16.85
2023-04-05T13:38:27.885Z,7.93
2023-04-05T13:40:54.406Z,9.10
2023-04-05T13:43:20.826Z,9.00
2023-04-05T13:45:47.195Z,9.45
2023-04-05T13:48:13.583Z,9.52
2023-04-05T13:50:40.410Z,8.52
2023-04-05T13:53:07.436Z,10.57
2023-04-05T13:55:33.894Z,12.18
2023-04-05T13:58:00.476Z,10.05
2023-04-05T14:00:26.873Z,7.57
2023-04-05T14:02:53.416Z,8.38
2023-04-05T14:05:19.891Z,7.05
2023-04-05T14:07:46.649Z,8.10
2023-04-05T14:10:13.220Z,7.07
2023-04-05T14:12:39.702Z,8.45
2023-04-05T14:15:06.671Z,6.20
2023-04-05T14:17:33.270Z,9.43
2023-04-05T14:19:59.736Z,6.47
2023-04-05T14:22:26.266Z,8.00
2023-04-05T14:24:52.716Z,27.60
2023-04-05T14:27:22.137Z,9.05
2023-04-05T14:29:48.648Z,12.05
2023-04-05T14:32:15.760Z,7.82
2023-04-05T14:34:42.160Z,7.65
2023-04-05T14:37:08.709Z,8.52
2023-04-05T14:39:35.505Z,8.18
2023-04-05T14:42:02.457Z,8.50
2023-04-05T14:44:29.086Z,6.78
2023-04-05T14:46:55.577Z,7.05
2023-04-05T14:49:22.030Z,7.10
2023-04-05T14:51:48.523Z,7.95
2023-04-05T14:54:14.952Z,9.48
2023-04-05T14:56:41.402Z,6.72
2023-04-05T14:59:07.884Z,8.98
2023-04-05T15:01:34.746Z,19.85
2023-04-05T15:04:01.313Z,32.38
2023-04-05T15:06:28.605Z,10.82
2023-04-05T15:08:54.991Z,11.75
2023-04-05T15:11:21.656Z,8.52
2023-04-05T15:13:48.106Z,9.02
2023-04-05T15:16:14.593Z,9.82
2023-04-05T15:18:41.107Z,8.25
2023-04-05T15:21:07.585Z,7.47
2023-04-05T15:23:34.225Z,8.57
2023-04-05T15:26:00.831Z,9.57
2023-04-05T15:28:27.266Z,8.95
2023-04-05T15:30:53.745Z,7.50
2023-04-05T15:33:20.791Z,15.82
2023-04-05T15:35:47.332Z,8.70
2023-04-05T15:38:13.758Z,8.40
2023-04-05T15:40:40.246Z,8.63
2023-04-05T15:43:06.740Z,12.18
2023-04-05T15:45:33.137Z,10.55
2023-04-05T15:47:59.661Z,8.40
2023-04-05T15:50:26.245Z,10.02
2023-04-05T15:52:52.753Z,10.30
2023-04-05T15:55:19.345Z,10.30
2023-04-05T15:57:45.984Z,11.82
2023-04-05T16:00:13.098Z,8.40
2023-04-05T16:02:39.691Z,11.48
2023-04-05T16:05:06.472Z,8.48
2023-04-05T16:07:32.930Z,12.38
2023-04-05T16:09:59.320Z,10.52
2023-04-05T16:12:25.895Z,9.63
2023-04-05T16:14:52.339Z,10.02
2023-04-05T16:17:18.794Z,12.10
2023-04-05T16:19:45.195Z,10.60
2023-04-05T16:22:11.686Z,11.45
2023-04-05T16:24:39.135Z,8.90
2023-04-05T16:27:06.180Z,12.60
2023-04-05T16:29:33.084Z,8.50
2023-04-05T16:31:59.660Z,8.05
2023-04-05T16:34:26.419Z,10.57
2023-04-05T16:36:52.874Z,7.10
2023-04-05T16:39:19.329Z,14.35
2023-04-05T16:41:45.870Z,10.02
2023-04-05T16:44:12.305Z,11.57
2023-04-05T16:46:39.730Z,9.68
2023-04-05T16:49:06.286Z,7.43
2023-04-05T16:51:36.255Z,8.95
2023-04-05T16:54:02.742Z,11.52
2023-04-05T16:56:29.196Z,9.45
2023-04-05T16:58:57.400Z,9.38
2023-04-05T17:01:23.950Z,10.68
2023-04-05T17:03:50.413Z,8.45
2023-04-05T17:06:16.825Z,11.27
2023-04-05T17:08:43.269Z,8.98
2023-04-05T17:11:10.067Z,9.02
2023-04-05T17:13:36.590Z,9.10
2023-04-05T17:16:03.116Z,7.95
2023-04-05T17:18:29.590Z,9.90
2023-04-05T17:20:56.271Z,11.32
2023-04-05T17:23:23.965Z,11.65
2023-04-05T17:25:50.444Z,8.77
2023-04-05T17:28:16.824Z,12.10
2023-04-05T17:30:43.531Z,12.85
2023-04-05T17:33:09.984Z,12.05
2023-04-05T17:35:36.658Z,11.85
2023-04-05T17:38:03.458Z,8.70
2023-04-05T17:40:31.000Z,11.45
2023-04-05T17:42:57.493Z,14.18
2023-04-05T17:45:23.915Z,8.90
2023-04-05T17:47:50.409Z,11.02
2023-04-05T17:50:17.062Z,9.07
2023-04-05T17:52:43.543Z,18.80
2023-04-05T17:55:10.330Z,12.93
2023-04-05T17:57:36.783Z,10.68
2023-04-05T18:00:04.101Z,12.40
2023-04-05T18:02:31.417Z,14.32
2023-04-05T18:04:57.844Z,14.18
2023-04-05T18:07:24.238Z,18.17
2023-04-05T18:09:50.725Z,15.18
2023-04-05T18:12:17.169Z,15.70
2023-04-05T18:14:43.562Z,17.98
2023-04-05T18:17:10.023Z,21.67
2023-04-05T18:19:36.651Z,24.20
2023-04-05T18:22:03.068Z,28.33
2023-04-05T18:24:29.717Z,22.90
2023-04-05T18:26:56.202Z,28.33
2023-04-05T18:29:28.032Z,31.80
2023-04-05T18:31:55.746Z,42.78
2023-04-05T18:34:23.783Z,42.45
2023-04-05T18:36:50.992Z,42.55
2023-04-05T18:39:19.380Z,37.08
2023-04-05T18:41:45.833Z,35.92
2023-04-05T18:44:12.933Z,22.27
2023-04-05T18:46:39.384Z,22.63
2023-04-05T18:49:06.084Z,17.00
2023-04-05T18:51:33.183Z,17.85
2023-04-05T18:54:00.021Z,20.30
2023-04-05T18:56:27.482Z,20.20
2023-04-05T18:58:53.912Z,24.73
2023-04-05T19:01:20.691Z,26.65
2023-04-05T19:03:47.985Z,26.15
2023-04-05T19:06:14.867Z,31.55
2023-04-05T19:08:41.473Z,26.38
2023-04-05T19:11:08.435Z,27.00
2023-04-05T19:13:34.838Z,24.20
2023-04-05T19:16:01.668Z,22.30
2023-04-05T19:18:29.696Z,20.23
2023-04-05T19:20:58.604Z,22.17
2023-04-05T19:23:26.368Z,21.13
2023-04-05T19:25:56.537Z,25.67
2023-04-05T19:28:27.058Z,26.95
2023-04-05T19:30:54.543Z,19.45
2023-04-05T19:33:21.852Z,43.72
2023-04-05T19:35:48.808Z,50.58
2023-04-05T19:38:15.330Z,36.13
2023-04-05T19:40:42.429Z,22.95
2023-04-05T19:43:09.979Z,21.77
2023-04-05T19:45:37.028Z,24.67
2023-04-05T19:48:25.916Z,16.95
2023-04-05T19:50:54.340Z,20.13
2023-04-05T19:53:44.872Z,21.17
2023-04-05T19:56:18.564Z,24.63
2023-04-05T19:58:46.766Z,22.05
2023-04-05T20:01:35.356Z,21.23
2023-04-05T20:04:15.427Z,16.13
2023-04-05T20:06:43.848Z,17.42
2023-04-05T20:09:12.635Z,19.92
2023-04-05T20:11:39.283Z,19.65
2023-04-05T20:14:08.488Z,18.80
2023-04-05T20:16:37.525Z,19.77
2023-04-05T20:19:06.803Z,18.00
2023-04-05T20:21:33.742Z,18.67
2023-04-05T20:24:01.440Z,20.65
2023-04-05T20:26:31.632Z,19.77
2023-04-05T20:29:01.079Z,24.58
2023-04-05T20:31:30.730Z,23.08
2023-04-05T20:34:11.630Z,19.05
2023-04-05T20:36:46.854Z,21.63
2023-04-05T20:39:13.259Z,19.63
2023-04-05T20:41:40.139Z,20.40
2023-04-05T20:44:06.977Z,19.90
2023-04-05T20:46:33.824Z,20.08
2023-04-05T20:49:00.705Z,18.13
2023-04-05T20:51:27.619Z,17.38
2023-04-05T20:53:55.419Z,23.13
2023-04-05T20:56:21.836Z,19.80
2023-04-05T20:58:48.275Z,21.83
2023-04-05T21:01:14.739Z,21.48
2023-04-05T21:03:42.520Z,18.40
2023-04-05T21:06:10.214Z,19.23
2023-04-05T21:08:37.853Z,18.50
2023-04-05T21:11:04.717Z,19.10
2023-04-05T21:13:31.248Z,23.42
2023-04-05T21:15:58.295Z,24.30
2023-04-05T21:18:25.405Z,22.23
2023-04-05T21:20:52.788Z,25.33
2023-04-05T21:23:21.344Z,21.60
2023-04-05T21:25:47.957Z,24.20
2023-04-05T21:28:18.446Z,27.67
2023-04-05T21:30:45.840Z,21.70
2023-04-05T21:33:12.807Z,22.88
2023-04-05T21:35:39.872Z,25.00
2023-04-05T21:38:06.618Z,26.23
2023-04-05T21:40:33.410Z,28.52
2023-04-05T21:43:00.151Z,27.30
2023-04-05T21:45:27.026Z,32.00
2023-04-05T21:47:53.907Z,29.50
2023-04-05T21:50:21.093Z,29.60
2023-04-05T21:52:47.745Z,23.50
2023-04-05T21:55:14.192Z,24.33
2023-04-05T21:57:40.710Z,20.70
2023-04-05T22:00:11.729Z,22.60
2023-04-05T22:02:41.219Z,25.67
2023-04-05T22:05:08.198Z,27.00
2023-04-05T22:07:35.737Z,23.25
2023-04-05T22:10:02.688Z,21.52
2023-04-05T22:12:29.157Z,20.65
2023-04-05T22:14:55.618Z,18.83
2023-04-05T22:17:22.092Z,21.10
2023-04-05T22:19:48.505Z,21.38
2023-04-05T22:22:16.025Z,22.38
2023-04-05T22:24:42.523Z,21.67
2023-04-05T22:27:09.332Z,23.27
2023-04-05T22:29:36.053Z,20.30
2023-04-05T22:32:02.594Z,24.77
2023-04-05T22:34:29.125Z,20.88
2023-04-05T22:36:55.767Z,19.80
2023-04-05T22:39:22.248Z,21.65
2023-04-05T22:41:48.672Z,17.55
2023-04-05T22:44:15.140Z,17.80
2023-04-05T22:46:41.589Z,23.70
2023-04-05T22:49:08.684Z,16.80
2023-04-05T22:51:35.197Z,19.38
2023-04-05T22:54:01.650Z,19.08
2023-04-05T22:56:28.013Z,17.15
2023-04-05T22:58:54.476Z,19.63
2023-04-05T23:01:20.993Z,15.52
2023-04-05T23:03:47.470Z,14.38
2023-04-05T23:06:14.756Z,15.77
2023-04-05T23:08:41.257Z,18.80
2023-04-05T23:11:07.672Z,16.13
2023-04-05T23:13:34.114Z,16.75
2023-04-05T23:16:00.597Z,16.98
2023-04-05T23:18:27.183Z,14.40
2023-04-05T23:20:53.606Z,14.48
2023-04-05T23:23:20.181Z,20.10
2023-04-05T23:25:46.584Z,21.80
2023-04-05T23:28:13.106Z,18.27
2023-04-05T23:30:39.514Z,20.25
2023-04-05T23:33:06.064Z,20.92
2023-04-05T23:35:32.562Z,15.45
2023-04-05T23:37:59.008Z,15.05
2023-04-05T23:40:25.630Z,18.63
2023-04-05T23:42:52.085Z,17.80
2023-04-05T23:45:18.460Z,15.75
2023-04-05T23:47:44.937Z,19.30
2023-04-05T23:50:11.454Z,21.50
2023-04-05T23:52:37.908Z,16.70
2023-04-05T23:55:04.819Z,15.18
2023-04-05T23:57:31.274Z,13.75
2023-04-05T23:59:57.698Z,12.13
